Terminal Aerodrome Forecast
Issued by NWS Tuscon, AZ

Home | Current Version | Previous Version | Text Only | Print | Product List | Glossary On
Versions: 1 2 3 4 5 6 7 8 9 10 11 12 13 14 15
603
FTUS45 KTWC 010520
TAFTUS
TAF
KTUS 010520Z 0106/0206 35005KT P6SM SKC
     FM010800 15006KT P6SM SKC
     FM011600 VRB03KT P6SM SKC
     FM012100 31008KT P6SM SKC=

USA.gov is the U.S. government's official web portal to all federal, state and local government web resources and services.